Time;durP1;ratioP1;P1;durP2;ratioP2;P2;SDS_P1;SDS_P2;PMS_P1;PMS_P2;Temp;Humidity;BMP_temperature;BMP_pressure;BME280_temperature;BME280_humidity;BME280_pressure;Samples;Min_cycle;Max_cycle;Signal;HPM_P1;HPM_P2
2022/07/24 00:03:43;;;;;;;;;;;;;;;25.29;49.79;96056.09;10236256;28;1896;-75
2022/07/24 00:08:43;;;;;;;;;;;;;;;25.29;49.82;96048.13;10234281;28;1812;-74
2022/07/24 00:13:45;;;;;;;;;;;;;;;25.29;49.89;96054.25;10238754;28;1842;-74
2022/07/24 00:18:45;;;;;;;;;;;;;;;25.24;49.78;96049.06;10242555;28;1894;-74
2022/07/24 00:23:45;;;;;;;;;;;;;;;25.23;49.84;96051.97;10235816;28;1902;-74
2022/07/24 00:28:47;;;;;;;;;;;;;;;25.24;49.81;96043.75;10236484;28;1835;-75
2022/07/24 00:33:48;;;;;;;;;;;;;;;25.25;49.71;96040.00;10235005;28;1792;-74
2022/07/24 00:38:48;;;;;;;;;;;;;;;25.24;50.05;96033.13;10257604;28;2083;-75
2022/07/24 00:44:18;;;;;;;;;;;;;;;25.25;49.79;96042.66;10232720;28;2218;-75
2022/07/24 00:49:18;;;;;;;;;;;;;;;25.25;49.83;96040.00;10244902;28;1948;-76
2022/07/24 00:54:19;;;;;;;;;;;;;;;25.23;49.81;96036.84;10238205;28;1937;-74
2022/07/24 00:59:20;;;;;;;;;;;;;;;25.23;49.77;96044.03;10235073;28;1940;-74
2022/07/24 01:04:23;;;;;;;;;;;;;;;25.24;49.77;96043.75;10240555;28;1991;-74
2022/07/24 01:09:23;;;;;;;;;;;;;;;25.23;49.56;96039.50;10240599;28;1960;-75
2022/07/24 01:14:33;;;;;;;;;;;;;;;25.19;49.43;96043.84;10237007;28;2006;-75
2022/07/24 01:19:40;;;;;;;;;;;;;;;25.20;49.55;96034.81;10225141;28;2011;-75
2022/07/24 01:24:43;;;;;;;;;;;;;;;25.20;49.36;96040.13;10237938;28;1968;-74
2022/07/24 01:29:50;;;;;;;;;;;;;;;25.20;49.15;96039.31;10243105;28;1963;-74
2022/07/24 01:35:02;;;;;;;;;;;;;;;25.20;49.32;96039.31;10237975;28;1951;-74
2022/07/24 01:40:15;;;;;;;;;;;;;;;25.19;49.34;96027.13;10240083;28;1992;-73
2022/07/24 01:45:18;;;;;;;;;;;;;;;25.21;49.23;96031.06;10251598;28;1919;-74
2022/07/24 01:50:19;;;;;;;;;;;;;;;25.20;49.22;96032.16;10254754;28;2022;-73
2022/07/24 01:55:20;;;;;;;;;;;;;;;25.19;49.38;96025.25;10241498;28;1959;-73
2022/07/24 02:00:20;;;;;;;;;;;;;;;25.19;49.35;96027.91;10239033;28;1890;-74
2022/07/24 02:05:21;;;;;;;;;;;;;;;25.20;49.45;96021.53;10238636;28;1964;-74
2022/07/24 02:10:21;;;;;;;;;;;;;;;25.19;49.53;96025.25;10237585;28;1967;-74
2022/07/24 02:15:22;;;;;;;;;;;;;;;25.19;49.95;96027.13;10235428;29;1964;-74
2022/07/24 02:20:23;;;;;;;;;;;;;;;25.18;49.71;96018.41;10238731;28;1976;-74
2022/07/24 02:25:23;;;;;;;;;;;;;;;25.19;49.93;96011.22;10242363;28;1980;-74
2022/07/24 02:30:24;;;;;;;;;;;;;;;25.17;50.04;96003.56;10244636;28;1930;-74
2022/07/24 02:35:24;;;;;;;;;;;;;;;25.17;49.89;96014.16;10262096;28;1769;-74
2022/07/24 02:40:25;;;;;;;;;;;;;;;25.16;49.95;96009.94;10249200;28;2039;-74
2022/07/24 02:45:26;;;;;;;;;;;;;;;25.16;49.86;96012.59;10236895;28;2033;-74
2022/07/24 02:50:29;;;;;;;;;;;;;;;25.14;49.79;96020.06;10245213;29;2053;-74
2022/07/24 02:55:29;;;;;;;;;;;;;;;25.12;49.64;96030.19;10244326;28;1901;-74
2022/07/24 03:00:29;;;;;;;;;;;;;;;25.08;49.75;96021.22;10242169;28;2374;-74
2022/07/24 03:05:30;;;;;;;;;;;;;;;25.04;49.83;96020.25;10244717;28;2049;-74
2022/07/24 03:10:31;;;;;;;;;;;;;;;25.09;49.77;96024.69;10249540;28;1987;-74
2022/07/24 03:15:31;;;;;;;;;;;;;;;25.10;49.78;96019.06;10241762;28;1983;-73
2022/07/24 03:20:32;;;;;;;;;;;;;;;25.09;49.45;96022.03;10240386;28;1980;-74
2022/07/24 03:25:32;;;;;;;;;;;;;;;25.08;49.64;96015.91;10246287;28;1969;-74
2022/07/24 03:30:34;;;;;;;;;;;;;;;25.08;49.38;96010.63;10242332;28;2054;-74
2022/07/24 03:35:35;;;;;;;;;;;;;;;25.07;49.51;96024.97;10256635;28;1917;-75
2022/07/24 03:40:35;;;;;;;;;;;;;;;25.07;49.52;96010.94;10242722;28;1948;-74
2022/07/24 03:45:35;;;;;;;;;;;;;;;25.04;49.50;96021.03;10242842;28;1961;-73
2022/07/24 03:50:35;;;;;;;;;;;;;;;25.05;49.62;96013.88;10258042;28;2005;-74
2022/07/24 03:55:36;;;;;;;;;;;;;;;25.04;49.68;96014.94;10241046;28;1645;-73
2022/07/24 04:00:37;;;;;;;;;;;;;;;25.02;49.98;96022.41;10242451;28;1991;-74
2022/07/24 04:05:38;;;;;;;;;;;;;;;25.03;49.73;96027.44;10240350;28;2063;-73
2022/07/24 04:10:38;;;;;;;;;;;;;;;25.03;49.75;96039.91;10254170;28;1999;-73
2022/07/24 04:15:40;;;;;;;;;;;;;;;25.02;49.92;96048.94;10242179;28;2110;-74
2022/07/24 04:20:40;;;;;;;;;;;;;;;25.01;49.72;96045.53;10241018;28;2008;-73
2022/07/24 04:25:41;;;;;;;;;;;;;;;25.02;50.00;96051.59;10241709;28;1972;-73
2022/07/24 04:30:41;;;;;;;;;;;;;;;25.01;50.09;96055.34;10243440;28;2388;-73
2022/07/24 04:35:41;;;;;;;;;;;;;;;25.00;49.98;96057.19;10241594;28;2036;-73
2022/07/24 04:40:42;;;;;;;;;;;;;;;25.00;50.03;96049.25;10243348;29;2024;-74
2022/07/24 04:45:43;;;;;;;;;;;;;;;24.98;50.28;96053.25;10256036;28;2059;-73
2022/07/24 04:50:43;;;;;;;;;;;;;;;24.99;50.57;96054.84;10253866;28;1922;-74
2022/07/24 04:55:43;;;;;;;;;;;;;;;24.98;50.29;96054.06;10254365;28;2021;-73
2022/07/24 05:00:44;;;;;;;;;;;;;;;24.96;50.65;96063.38;10239908;28;1830;-73
2022/07/24 05:05:44;;;;;;;;;;;;;;;24.89;51.08;96070.94;10251671;28;1997;-74
2022/07/24 05:10:45;;;;;;;;;;;;;;;24.94;51.12;96071.63;10253029;28;1876;-74
2022/07/24 05:15:45;;;;;;;;;;;;;;;24.98;51.04;96080.56;10253359;28;1911;-74
2022/07/24 05:20:46;;;;;;;;;;;;;;;24.98;50.97;96074.47;10253584;28;1941;-74
2022/07/24 05:25:46;;;;;;;;;;;;;;;24.96;51.11;96077.44;10244234;28;2085;-74
2022/07/24 05:30:47;;;;;;;;;;;;;;;25.00;51.27;96078.41;10253619;28;2056;-74
2022/07/24 05:35:47;;;;;;;;;;;;;;;25.02;51.41;96080.75;10238723;28;2076;-74
2022/07/24 05:40:51;;;;;;;;;;;;;;;25.02;51.13;96078.91;10238171;28;1976;-75
2022/07/24 05:45:51;;;;;;;;;;;;;;;25.01;51.20;96074.69;10234989;28;1965;-75
2022/07/24 05:50:52;;;;;;;;;;;;;;;25.04;51.22;96081.25;10237231;28;1910;-75
2022/07/24 05:55:53;;;;;;;;;;;;;;;25.06;50.98;96086.28;10233579;28;2003;-75
2022/07/24 06:00:55;;;;;;;;;;;;;;;24.99;51.14;96079.50;10239907;28;1903;-74
2022/07/24 06:05:55;;;;;;;;;;;;;;;25.01;51.18;96071.25;10244574;28;1981;-74
2022/07/24 06:10:55;;;;;;;;;;;;;;;25.07;51.21;96072.72;10244111;28;2045;-74
2022/07/24 06:15:56;;;;;;;;;;;;;;;25.08;51.24;96071.63;10237941;28;1960;-74
2022/07/24 06:20:57;;;;;;;;;;;;;;;25.08;50.68;96071.63;10240564;28;2029;-74
2022/07/24 06:25:57;;;;;;;;;;;;;;;25.10;50.66;96071.34;10248066;28;2097;-74
2022/07/24 06:30:57;;;;;;;;;;;;;;;25.06;50.70;96063.19;10244205;28;2129;-74
2022/07/24 06:35:58;;;;;;;;;;;;;;;25.04;50.22;96074.09;10247338;28;1775;-74
2022/07/24 06:40:59;;;;;;;;;;;;;;;25.06;50.48;96073.03;10256447;28;1864;-74
2022/07/24 06:45:59;;;;;;;;;;;;;;;25.08;50.33;96071.63;10261288;28;1940;-74
2022/07/24 06:51:00;;;;;;;;;;;;;;;25.05;50.24;96069.59;10247848;28;1902;-69
2022/07/24 06:56:01;;;;;;;;;;;;;;;25.07;50.07;96070.06;10245250;28;1857;-69
2022/07/24 07:01:02;;;;;;;;;;;;;;;25.08;50.25;96062.91;10245859;28;1829;-69
2022/07/24 07:06:03;;;;;;;;;;;;;;;25.10;50.05;96071.34;10239596;28;1946;-72
2022/07/24 07:11:03;;;;;;;;;;;;;;;25.14;50.03;96056.41;10248408;28;1846;-75
2022/07/24 07:16:04;;;;;;;;;;;;;;;25.12;49.61;96066.53;10245505;28;2001;-77
2022/07/24 07:21:04;;;;;;;;;;;;;;;25.13;49.35;96068.09;10249229;28;1857;-68
2022/07/24 07:26:04;;;;;;;;;;;;;;;25.13;49.26;96076.06;10259895;28;1902;-71
2022/07/24 07:31:05;;;;;;;;;;;;;;;25.12;48.92;96075.28;10237340;28;1874;-64
2022/07/24 07:36:06;;;;;;;;;;;;;;;25.12;48.66;96072.63;10253246;28;1989;-64
2022/07/24 07:41:07;;;;;;;;;;;;;;;25.14;48.51;96075.78;10254065;28;1763;-66
2022/07/24 07:46:07;;;;;;;;;;;;;;;25.20;48.35;96071.16;10239479;28;1922;-67
2022/07/24 07:51:07;;;;;;;;;;;;;;;25.23;48.76;96067.91;10238204;28;1819;-68
2022/07/24 07:56:08;;;;;;;;;;;;;;;25.26;48.70;96069.97;10240718;28;1911;-68
2022/07/24 08:01:08;;;;;;;;;;;;;;;25.28;48.37;96078.44;10255042;28;1810;-67
2022/07/24 08:06:09;;;;;;;;;;;;;;;25.27;48.33;96076.84;10240201;28;1979;-67
2022/07/24 08:11:11;;;;;;;;;;;;;;;25.28;48.15;96073.91;10241442;28;1894;-66
2022/07/24 08:16:12;;;;;;;;;;;;;;;25.26;47.73;96073.41;10241138;28;1820;-71
2022/07/24 08:21:12;;;;;;;;;;;;;;;25.29;47.82;96077.31;10239865;28;1805;-66
2022/07/24 08:26:12;;;;;;;;;;;;;;;25.30;47.70;96071.75;10234384;28;1911;-66
2022/07/24 08:31:13;;;;;;;;;;;;;;;25.35;48.10;96076.94;10238277;28;1794;-66
2022/07/24 08:36:13;;;;;;;;;;;;;;;25.36;47.95;96070.56;10238132;28;1914;-64
2022/07/24 08:41:15;;;;;;;;;;;;;;;25.38;47.78;96068.41;10234936;28;1820;-65
2022/07/24 08:46:16;;;;;;;;;;;;;;;25.38;47.47;96067.59;10240747;28;1911;-64
2022/07/24 08:51:16;;;;;;;;;;;;;;;25.39;47.93;96069.97;10254251;28;2281;-68
2022/07/24 08:56:17;;;;;;;;;;;;;;;25.42;47.61;96063.31;10237423;28;1795;-70
2022/07/24 09:01:17;;;;;;;;;;;;;;;25.40;47.43;96071.53;10255708;28;1825;-70
2022/07/24 09:06:17;;;;;;;;;;;;;;;25.39;46.94;96058.56;10239436;28;1902;-69
2022/07/24 09:11:18;;;;;;;;;;;;;;;25.42;47.60;96061.44;10237361;29;1885;-69
2022/07/24 09:16:22;;;;;;;;;;;;;;;25.43;47.72;96063.00;10236533;28;1880;-69
2022/07/24 09:21:23;;;;;;;;;;;;;;;25.46;47.90;96059.78;10248250;28;1781;-69
2022/07/24 09:26:23;;;;;;;;;;;;;;;25.48;47.90;96056.81;10250976;28;1954;-69
2022/07/24 09:31:24;;;;;;;;;;;;;;;25.49;47.58;96061.06;10250997;28;1770;-69
2022/07/24 09:36:25;;;;;;;;;;;;;;;25.50;47.38;96059.94;10247774;28;1988;-70
2022/07/24 09:41:27;;;;;;;;;;;;;;;25.52;47.58;96052.47;10231653;28;1856;-69
2022/07/24 09:46:29;;;;;;;;;;;;;;;25.53;47.60;96049.50;10235620;28;1887;-69
2022/07/24 09:51:30;;;;;;;;;;;;;;;25.54;47.71;96051.09;10250151;28;1851;-69
2022/07/24 09:56:30;;;;;;;;;;;;;;;25.56;47.72;96050.78;10236232;28;2211;-67
2022/07/24 10:01:34;;;;;;;;;;;;;;;25.60;47.84;96041.94;10237325;29;1941;-66
2022/07/24 10:06:34;;;;;;;;;;;;;;;25.61;47.53;96045.38;10230603;28;2155;-67
2022/07/24 10:11:35;;;;;;;;;;;;;;;25.59;47.02;96043.03;10228248;28;1874;-66
2022/07/24 10:16:36;;;;;;;;;;;;;;;25.57;46.66;96039.91;10215626;28;1861;-65
2022/07/24 10:21:37;;;;;;;;;;;;;;;25.60;47.20;96043.81;10227518;28;1812;-66
2022/07/24 10:26:43;;;;;;;;;;;;;;;25.61;47.07;96027.59;10230871;28;1911;-66
2022/07/24 10:31:44;;;;;;;;;;;;;;;25.64;46.77;96032.28;10232034;28;1716;-66
2022/07/24 10:36:49;;;;;;;;;;;;;;;25.67;47.11;96025.63;10231701;29;1816;-66
2022/07/24 10:42:02;;;;;;;;;;;;;;;25.67;47.13;96018.44;10230108;28;1817;-66
2022/07/24 10:47:06;;;;;;;;;;;;;;;25.68;47.21;96020.00;10239732;28;1946;-67
2022/07/24 10:52:06;;;;;;;;;;;;;;;25.70;46.86;96006.41;10238864;28;1790;-67
2022/07/24 10:57:06;;;;;;;;;;;;;;;25.70;46.91;96012.50;10255957;28;1927;-67
2022/07/24 11:02:26;;;;;;;;;;;;;;;25.72;46.96;95999.72;10242089;28;1978;-67
2022/07/24 11:07:27;;;;;;;;;;;;;;;25.70;46.79;96009.84;10255252;28;1863;-67
2022/07/24 11:12:29;;;;;;;;;;;;;;;25.69;47.14;96016.28;10239819;28;1869;-67
2022/07/24 11:17:35;;;;;;;;;;;;;;;25.72;46.18;95994.41;10234630;28;1822;-67
2022/07/24 11:22:48;;;;;;;;;;;;;;;25.71;46.65;95986.75;10236436;28;1946;-67
2022/07/24 11:27:51;;;;;;;;;;;;;;;25.73;46.76;95990.69;10235208;28;1944;-67
2022/07/24 11:32:51;;;;;;;;;;;;;;;25.72;45.90;95991.75;10236877;28;1847;-66
2022/07/24 11:37:52;;;;;;;;;;;;;;;25.67;45.93;95991.88;10239900;28;2335;-66
2022/07/24 11:42:59;;;;;;;;;;;;;;;25.69;45.72;95979.09;10241289;28;1907;-67
2022/07/24 11:47:59;;;;;;;;;;;;;;;25.73;45.90;95974.75;10230342;28;1903;-67
2022/07/24 11:53:00;;;;;;;;;;;;;;;25.77;45.74;95964.31;10237831;28;1851;-67
2022/07/24 11:58:01;;;;;;;;;;;;;;;25.80;45.92;95969.03;10234300;28;1757;-67
2022/07/24 12:03:03;;;;;;;;;;;;;;;25.76;46.31;95971.47;10242104;28;2006;-67
2022/07/24 12:08:04;;;;;;;;;;;;;;;25.80;46.27;95966.38;10237080;28;1832;-67
2022/07/24 12:13:05;;;;;;;;;;;;;;;25.79;45.99;95960.28;10239896;28;1771;-67
2022/07/24 12:18:06;;;;;;;;;;;;;;;25.84;45.77;95960.13;10229190;28;1949;-67
2022/07/24 12:23:07;;;;;;;;;;;;;;;25.83;46.30;95958.59;10238256;29;1952;-67
2022/07/24 12:28:08;;;;;;;;;;;;;;;25.86;46.28;95951.88;10236239;29;1947;-66
2022/07/24 12:33:18;;;;;;;;;;;;;;;25.95;45.96;95949.25;10252673;28;2070;-69
2022/07/24 12:38:27;;;;;;;;;;;;;;;25.95;44.56;95944.75;10235212;29;1462;-69
2022/07/24 12:43:28;;;;;;;;;;;;;;;25.93;45.04;95941.59;10239048;28;1980;-71
2022/07/24 12:48:29;;;;;;;;;;;;;;;25.93;44.81;95938.16;10242383;29;1791;-71
2022/07/24 12:53:31;;;;;;;;;;;;;;;25.94;44.56;95937.09;10259070;28;1611;-71
2022/07/24 12:58:48;;;;;;;;;;;;;;;25.96;44.34;95924.28;10241580;28;1540;-72
2022/07/24 13:03:58;;;;;;;;;;;;;;;26.01;44.30;95910.91;10255860;28;1970;-72
2022/07/24 13:08:59;;;;;;;;;;;;;;;26.02;44.80;95912.44;10238008;28;1469;-73
2022/07/24 13:13:59;;;;;;;;;;;;;;;26.02;43.65;95907.13;10236763;29;2428;-70
2022/07/24 13:19:00;;;;;;;;;;;;;;;26.00;43.29;95901.34;10243231;28;1496;-74
2022/07/24 13:24:00;;;;;;;;;;;;;;;26.00;43.11;95899.47;10239533;29;1902;-73
2022/07/24 13:29:01;;;;;;;;;;;;;;;26.01;43.24;95887.00;10246731;28;1501;-73
2022/07/24 13:34:01;;;;;;;;;;;;;;;26.03;43.43;95887.47;10257015;28;1769;-74
2022/07/24 13:39:03;;;;;;;;;;;;;;;26.03;43.00;95882.16;10243424;28;1429;-73
2022/07/24 13:44:03;;;;;;;;;;;;;;;26.04;43.15;95871.22;10241565;28;1978;-74
2022/07/24 13:49:06;;;;;;;;;;;;;;;26.05;42.87;95870.09;10241507;28;1521;-73
2022/07/24 13:54:06;;;;;;;;;;;;;;;26.06;42.93;95863.72;10241676;28;1691;-74
2022/07/24 13:59:06;;;;;;;;;;;;;;;26.08;43.25;95858.91;10238800;29;1428;-72
2022/07/24 14:04:10;;;;;;;;;;;;;;;26.07;42.64;95856.53;10236500;28;1975;-73
2022/07/24 14:09:10;;;;;;;;;;;;;;;26.10;43.10;95848.75;10239007;28;1501;-76
2022/07/24 14:14:11;;;;;;;;;;;;;;;26.12;43.12;95853.75;10237433;28;1526;-76
2022/07/24 14:19:11;;;;;;;;;;;;;;;26.07;42.20;95845.91;10237253;28;1542;-76
2022/07/24 14:24:12;;;;;;;;;;;;;;;26.10;42.70;95827.50;10246442;29;1911;-77
2022/07/24 14:29:12;;;;;;;;;;;;;;;26.14;42.85;95825.03;10265709;28;1421;-74
2022/07/24 14:34:15;;;;;;;;;;;;;;;26.16;42.82;95828.16;10251619;29;1508;-76
2022/07/24 14:39:16;;;;;;;;;;;;;;;26.17;42.76;95832.38;10253978;28;1514;-74
2022/07/24 14:44:17;;;;;;;;;;;;;;;26.17;42.71;95824.41;10248457;28;1895;-74
2022/07/24 14:49:17;;;;;;;;;;;;;;;26.17;42.81;95821.75;10249774;28;1481;-74
2022/07/24 14:54:17;;;;;;;;;;;;;;;26.15;42.76;95823.94;10246698;28;1471;-74
2022/07/24 14:59:17;;;;;;;;;;;;;;;26.13;41.88;95823.47;10252896;28;1419;-73
2022/07/24 15:04:18;;;;;;;;;;;;;;;26.17;42.31;95819.09;10262890;28;1894;-75
2022/07/24 15:09:18;;;;;;;;;;;;;;;26.19;41.43;95819.59;10246667;28;1583;-76
2022/07/24 15:14:18;;;;;;;;;;;;;;;26.18;40.98;95799.41;10241841;28;1452;-74
2022/07/24 15:19:19;;;;;;;;;;;;;;;26.19;41.24;95801.78;10246540;28;1688;-72
2022/07/24 15:24:19;;;;;;;;;;;;;;;26.18;40.44;95794.09;10240186;29;1919;-74
2022/07/24 15:29:20;;;;;;;;;;;;;;;26.20;39.12;95784.72;10260237;28;1486;-73
2022/07/24 15:34:20;;;;;;;;;;;;;;;26.19;40.62;95785.81;10242075;28;1596;-73
2022/07/24 15:39:23;;;;;;;;;;;;;;;26.22;40.09;95784.41;10245390;28;1501;-73
2022/07/24 15:44:23;;;;;;;;;;;;;;;26.22;39.52;95768.47;10244676;29;1976;-72
2022/07/24 15:49:24;;;;;;;;;;;;;;;26.19;40.25;95769.09;10256964;28;1660;-71
2022/07/24 15:54:27;;;;;;;;;;;;;;;26.20;39.80;95762.69;10238686;29;1473;-72
2022/07/24 15:59:28;;;;;;;;;;;;;;;26.20;39.70;95757.34;10241177;29;1500;-72
2022/07/24 16:04:28;;;;;;;;;;;;;;;26.20;39.95;95754.69;10243694;28;1918;-73
2022/07/24 16:09:28;;;;;;;;;;;;;;;26.20;39.62;95750.19;10240453;28;1527;-73
2022/07/24 16:14:31;;;;;;;;;;;;;;;26.20;39.84;95746.72;10247531;28;1517;-74
2022/07/24 16:19:31;;;;;;;;;;;;;;;26.19;39.46;95742.53;10256352;28;1554;-73
2022/07/24 16:24:32;;;;;;;;;;;;;;;26.22;39.52;95734.72;10246652;28;1985;-74
2022/07/24 16:29:32;;;;;;;;;;;;;;;26.27;39.53;95728.47;10254810;28;1450;-73
2022/07/24 16:34:33;;;;;;;;;;;;;;;26.22;39.05;95731.25;10239638;29;1504;-75
2022/07/24 16:39:34;;;;;;;;;;;;;;;26.25;39.46;95720.03;10237897;28;1447;-74
2022/07/24 16:44:36;;;;;;;;;;;;;;;26.27;39.53;95725.81;10240493;28;1918;-74
2022/07/24 16:49:37;;;;;;;;;;;;;;;26.25;39.36;95725.34;10231069;29;1837;-68
2022/07/24 16:54:37;;;;;;;;;;;;;;;26.28;38.33;95724.72;10235115;28;1752;-69
2022/07/24 16:59:38;;;;;;;;;;;;;;;26.31;39.06;95724.88;10251902;28;1446;-68
2022/07/24 17:04:38;;;;;;;;;;;;;;;26.34;38.85;95720.81;10238291;29;2385;-69
2022/07/24 17:09:38;;;;;;;;;;;;;;;26.33;39.05;95721.91;10233590;29;1518;-67
2022/07/24 17:14:41;;;;;;;;;;;;;;;26.30;39.11;95719.88;10236623;28;1495;-70
2022/07/24 17:19:41;;;;;;;;;;;;;;;26.29;39.27;95726.28;10246161;28;1693;-72
2022/07/24 17:24:42;;;;;;;;;;;;;;;26.32;39.47;95726.44;10239623;29;2215;-70
2022/07/24 17:29:43;;;;;;;;;;;;;;;26.35;39.71;95727.69;10238683;28;1488;-72
2022/07/24 17:34:44;;;;;;;;;;;;;;;26.33;39.72;95727.22;10233507;28;1942;-73
2022/07/24 17:39:44;;;;;;;;;;;;;;;26.33;39.73;95727.22;10235743;28;1861;-73
2022/07/24 17:44:47;;;;;;;;;;;;;;;26.34;39.66;95726.91;10240650;28;2109;-73
2022/07/24 17:49:47;;;;;;;;;;;;;;;26.38;39.33;95727.84;10235390;28;2049;-73
2022/07/24 17:54:48;;;;;;;;;;;;;;;26.41;39.29;95716.63;10249005;28;1971;-74
2022/07/24 17:59:48;;;;;;;;;;;;;;;26.36;39.83;95715.97;10235882;28;1832;-74
2022/07/24 18:04:48;;;;;;;;;;;;;;;26.39;40.26;95716.16;10254175;28;1974;-74
2022/07/24 18:09:51;;;;;;;;;;;;;;;26.37;40.43;95712.22;10248182;28;2096;-74
2022/07/24 18:14:53;;;;;;;;;;;;;;;26.36;40.44;95710.66;10250065;29;1808;-76
2022/07/24 18:19:54;;;;;;;;;;;;;;;26.37;40.43;95717.53;10242747;28;1558;-77
2022/07/24 18:24:55;;;;;;;;;;;;;;;26.37;40.48;95713.00;10236824;28;1948;-73
2022/07/24 18:29:56;;;;;;;;;;;;;;;26.38;40.50;95711.91;10253107;28;1444;-74
2022/07/24 18:34:57;;;;;;;;;;;;;;;26.38;40.58;95711.13;10254841;28;1789;-73
2022/07/24 18:40:00;;;;;;;;;;;;;;;26.38;40.76;95713.78;10234169;28;1579;-74
2022/07/24 18:45:03;;;;;;;;;;;;;;;26.38;40.63;95713.78;10236176;28;1918;-74
2022/07/24 18:50:04;;;;;;;;;;;;;;;26.38;40.97;95708.47;10235893;29;1556;-75
2022/07/24 18:55:05;;;;;;;;;;;;;;;26.40;40.76;95707.06;10233900;28;1812;-73
2022/07/24 19:00:07;;;;;;;;;;;;;;;26.38;40.89;95713.78;10255693;28;1515;-74
2022/07/24 19:05:07;;;;;;;;;;;;;;;26.41;40.85;95713.16;10237388;28;1914;-75
2022/07/24 19:10:08;;;;;;;;;;;;;;;26.39;40.93;95715.34;10256945;28;1510;-72
2022/07/24 19:15:08;;;;;;;;;;;;;;;26.37;40.90;95715.66;10251325;28;1826;-73
2022/07/24 19:20:09;;;;;;;;;;;;;;;26.39;40.89;95723.31;10239205;29;1496;-71
2022/07/24 19:25:09;;;;;;;;;;;;;;;26.36;41.08;95729.25;10243474;29;1980;-74
2022/07/24 19:30:10;;;;;;;;;;;;;;;26.39;41.16;95731.31;10243223;28;1462;-75
2022/07/24 19:35:11;;;;;;;;;;;;;;;26.38;41.13;95727.06;10240602;28;1808;-77
2022/07/24 19:40:11;;;;;;;;;;;;;;;26.38;41.19;95725.19;10242281;28;1433;-74
2022/07/24 19:45:12;;;;;;;;;;;;;;;26.39;40.96;95728.66;10239013;28;1914;-71
2022/07/24 19:50:13;;;;;;;;;;;;;;;26.38;41.41;95735.03;10243125;28;1523;-72
2022/07/24 19:55:14;;;;;;;;;;;;;;;26.40;41.52;95733.63;10242127;29;1824;-73
2022/07/24 20:00:15;;;;;;;;;;;;;;;26.41;41.48;95731.78;10239578;28;1477;-75
2022/07/24 20:05:15;;;;;;;;;;;;;;;26.41;41.65;95732.56;10245136;28;1980;-75
2022/07/24 20:10:19;;;;;;;;;;;;;;;26.42;41.47;95734.13;10243509;28;1454;-75
2022/07/24 20:15:21;;;;;;;;;;;;;;;26.43;41.53;95724.28;10243603;28;1773;-73
2022/07/24 20:20:22;;;;;;;;;;;;;;;26.42;41.48;95731.44;10243417;28;1555;-73
2022/07/24 20:25:22;;;;;;;;;;;;;;;26.45;41.42;95727.41;10242004;28;1911;-74
2022/07/24 20:30:23;;;;;;;;;;;;;;;26.45;41.38;95724.75;10239530;28;1479;-75
2022/07/24 20:35:23;;;;;;;;;;;;;;;26.48;41.62;95721.47;10235038;28;1542;-73
2022/07/24 20:40:24;;;;;;;;;;;;;;;26.46;41.64;95721.75;10240000;28;1498;-76
2022/07/24 20:45:24;;;;;;;;;;;;;;;26.48;41.77;95732.09;10253270;28;1972;-74
2022/07/24 20:50:24;;;;;;;;;;;;;;;26.47;41.97;95720.69;10237467;29;1523;-72
2022/07/24 20:55:24;;;;;;;;;;;;;;;26.47;41.55;95711.91;10237975;28;1543;-72
2022/07/24 21:00:25;;;;;;;;;;;;;;;26.49;41.71;95709.72;10240991;28;1489;-70
2022/07/24 21:05:26;;;;;;;;;;;;;;;26.48;41.58;95700.22;10237795;28;1950;-71
2022/07/24 21:10:26;;;;;;;;;;;;;;;26.48;41.71;95708.19;10234727;28;1689;-71
2022/07/24 21:15:27;;;;;;;;;;;;;;;26.46;41.82;95699.75;10253696;28;1601;-70
2022/07/24 21:20:29;;;;;;;;;;;;;;;26.47;41.84;95702.06;10237930;29;1653;-71
2022/07/24 21:25:29;;;;;;;;;;;;;;;26.48;41.95;95706.28;10234631;28;1911;-72
2022/07/24 21:30:30;;;;;;;;;;;;;;;26.49;41.89;95709.72;10233603;28;1485;-71
2022/07/24 21:35:30;;;;;;;;;;;;;;;26.48;42.03;95702.88;10233425;28;1528;-72
2022/07/24 21:40:31;;;;;;;;;;;;;;;26.49;42.10;95710.53;10235667;28;1441;-71
2022/07/24 21:45:31;;;;;;;;;;;;;;;26.49;42.20;95707.06;10234557;28;1976;-69
2022/07/24 21:50:33;;;;;;;;;;;;;;;26.47;42.09;95703.94;10231568;28;1493;-67
2022/07/24 21:55:33;;;;;;;;;;;;;;;26.47;42.32;95698.63;10249330;28;2131;-73
2022/07/24 22:00:35;;;;;;;;;;;;;;;26.48;42.28;95702.88;10238039;28;1879;-73
2022/07/24 22:05:35;;;;;;;;;;;;;;;26.45;42.42;95704.25;10231068;28;1939;-71
2022/07/24 22:10:40;;;;;;;;;;;;;;;26.38;42.41;95703.16;10233785;28;1866;-71
2022/07/24 22:15:40;;;;;;;;;;;;;;;26.35;42.49;95698.47;10235379;28;2132;-71
2022/07/24 22:20:41;;;;;;;;;;;;;;;26.34;42.63;95694.22;10251730;28;2064;-70
2022/07/24 22:25:41;;;;;;;;;;;;;;;26.30;42.73;95693.28;10232268;28;2113;-70
2022/07/24 22:30:41;;;;;;;;;;;;;;;26.23;42.92;95695.66;10237663;28;1899;-70
2022/07/24 22:35:42;;;;;;;;;;;;;;;26.20;43.21;95690.94;10233195;28;1820;-71
2022/07/24 22:41:02;;;;;;;;;;;;;;;26.16;43.16;95690.78;10232197;28;2161;-71
2022/07/24 22:46:03;;;;;;;;;;;;;;;26.18;43.19;95685.16;10241853;28;1906;-70
2022/07/24 22:51:03;;;;;;;;;;;;;;;26.14;43.25;95677.03;10239394;28;1925;-71
2022/07/24 22:56:04;;;;;;;;;;;;;;;26.11;43.43;95682.94;10259127;28;2132;-70
2022/07/24 23:01:05;;;;;;;;;;;;;;;26.09;43.44;95684.38;10243345;28;1925;-72
2022/07/24 23:06:05;;;;;;;;;;;;;;;26.04;43.62;95679.16;10238070;28;1983;-71
2022/07/24 23:11:06;;;;;;;;;;;;;;;26.04;43.50;95673.84;10242550;28;2058;-70
2022/07/24 23:16:07;;;;;;;;;;;;;;;25.97;43.81;95668.19;10242111;28;1998;-71
2022/07/24 23:21:08;;;;;;;;;;;;;;;25.95;43.87;95668.50;10245942;28;1772;-72
2022/07/24 23:26:08;;;;;;;;;;;;;;;25.95;43.87;95662.41;10240302;28;2019;-70
2022/07/24 23:31:09;;;;;;;;;;;;;;;25.94;43.89;95658.22;10253870;28;1949;-70
2022/07/24 23:36:09;;;;;;;;;;;;;;;25.92;43.76;95663.06;10243719;28;1993;-71
2022/07/24 23:41:09;;;;;;;;;;;;;;;25.89;44.00;95664.44;10241224;28;1835;-71
2022/07/24 23:46:10;;;;;;;;;;;;;;;25.86;43.90;95649.16;10241080;28;2030;-73
2022/07/24 23:51:10;;;;;;;;;;;;;;;25.86;44.17;95653.66;10238913;28;1964;-72
2022/07/24 23:56:10;;;;;;;;;;;;;;;25.87;44.10;95649.91;10240034;28;1883;-73
